Toyofujimaru No.2 — 7JDI — position and weather

sailwx.info

Track history (hours):
 
Tides and Currents Weather Stations Pressure Air Temp Water Temp Dewpoint Dewpoint Depression Visibility Wind Speed Wind Dir Waves Ship Positions

Toyofujimaru No.2

Last reported at 2015-Mar-06 06:31 UTC. Time now 2015-Mar-06 07:35 UTC.
Position N 35°30' E 139°46'.

Length 165 m; draft 6.4 m.

Type: Cargo ship. MMSI: 432667000.

Date/timePositionNaut miles runAvg speedWind from/ knotsBaromVisibWave heightAir tempDewpointWater temp
2015-Mar-06 06:31N 35°30' E 139°46'0 0.0
2015-Mar-06 05:25N 35°30' E 139°46'1 0.6
2015-Mar-06 04:34N 35°30' E 139°45'9 8.6
2015-Mar-06 03:34N 35°23' E 139°39'0 0.0
2015-Mar-06 02:33N 35°23' E 139°39'0 0.0
2015-Mar-06 01:33N 35°23' E 139°39'0 0.0
2015-Mar-06 00:33N 35°23' E 139°39'0 0.0
2015-Mar-05 23:33N 35°23' E 139°39'0 0.2
2015-Mar-05 22:34N 35°24' E 139°39'1110.7
2015-Mar-05 21:33N 35°15' E 139°47'1616.1
2015-Mar-05 20:33N 35°01' E 139°38'2 0.1
2015-Mar-04 10:33N 35°02' E 139°37'1514.8
2015-Mar-04 09:33N 35°14' E 139°46'1110.9
2015-Mar-04 08:33N 35°23' E 139°39'0 0.0
2015-Mar-04 07:33N 35°23' E 139°39'0 0.0
2015-Mar-04 06:33N 35°23' E 139°39'0 0.0
2015-Mar-04 05:33N 35°23' E 139°39'0 0.0
2015-Mar-04 04:33N 35°23' E 139°39'0 0.0
2015-Mar-04 03:33N 35°23' E 139°39'8 8.4
2015-Mar-04 02:33N 35°17' E 139°45'1211.6
2015-Mar-04 01:32N 35°05' E 139°42'10 7.6
2015-Mar-04 00:15N 35°00' E 139°32'10 0.3
2015-Mar-02 10:32N 34°56' E 139°43'1818.2
2015-Mar-02 09:33N 35°13' E 139°46'1312.9
2015-Mar-02 08:33N 35°26' E 139°45'4 3.3
2015-Mar-02 07:13N 35°30' E 139°46'0 0.0
2015-Mar-02 06:31N 35°30' E 139°46'0 0.0
2015-Mar-02 05:31N 35°30' E 139°46'0 0.0
2015-Mar-02 04:31N 35°30' E 139°46'1 0.6
2015-Mar-02 03:33N 35°30' E 139°45'8 8.0
2015-Mar-02 02:34N 35°23' E 139°40'1 1.2
2015-Mar-02 01:33N 35°23' E 139°39'0 0.0
2015-Mar-02 00:32N 35°23' E 139°39'0 0.0
2015-Mar-01 23:33N 35°23' E 139°39'0 0.0
2015-Mar-01 22:33N 35°23' E 139°39'6 5.6
2015-Mar-01 21:34N 35°19' E 139°43'1413.9
2015-Mar-01 20:33N 35°06' E 139°45'2116.8
2015-Mar-01 19:17N 34°51' E 139°26'8 0.3
2015-Feb-28 12:33N 34°59' E 139°23'8 7.0
2015-Feb-28 11:28N 35°05' E 139°28'6 6.4
2015-Feb-28 10:34N 35°03' E 139°35'1515.1
2015-Feb-28 09:33N 35°15' E 139°46'1010.4
2015-Feb-28 08:34N 35°23' E 139°39'0 0.0
2015-Feb-28 07:32N 35°23' E 139°39'0 0.0
2015-Feb-28 06:32N 35°23' E 139°39'0 0.0
2015-Feb-28 05:32N 35°23' E 139°39'0 0.0
2015-Feb-28 04:32N 35°23' E 139°39'0 0.0
2015-Feb-28 03:33N 35°23' E 139°39'1010.0
2015-Feb-28 02:33N 35°16' E 139°47'1716.5
2015-Feb-28 01:33N 34°59' E 139°43'25 0.7
2015-Feb-26 13:26N 34°59' E 140°14'2218.7
2015-Feb-26 12:17N 34°52' E 139°49'1318.1
2015-Feb-26 11:33N 35°05' E 139°44'1414.4
2015-Feb-26 10:33N 35°19' E 139°43'1111.4
2015-Feb-26 09:33N 35°30' E 139°46'0 0.0
2015-Feb-26 08:31N 35°30' E 139°46'0 0.0
2015-Feb-26 07:28N 35°30' E 139°46'0 0.0
2015-Feb-26 06:31N 35°30' E 139°46'0 0.0
2015-Feb-26 05:31N 35°30' E 139°46'0 0.0
2015-Feb-26 04:32N 35°30' E 139°46'6 6.1
2015-Feb-26 03:33N 35°25' E 139°43'4 3.5
2015-Feb-26 02:32N 35°23' E 139°39'0 0.0
2015-Feb-26 01:32N 35°23' E 139°39'0 0.0
2015-Feb-26 00:32N 35°23' E 139°39'0 0.0
2015-Feb-25 23:11N 35°23' E 139°39'0 0.0
2015-Feb-25 22:21N 35°23' E 139°39'5 6.4
2015-Feb-25 21:33N 35°20' E 139°43'1313.4
2015-Feb-25 20:33N 35°06' E 139°44'7 0.2
2015-Feb-24 12:12N 35°03' E 139°37'1118.0
2015-Feb-24 11:34N 35°12' E 139°46'1212.5
2015-Feb-24 10:33N 35°23' E 139°40'1 0.6
2015-Feb-24 09:33N 35°23' E 139°39'0 0.0
2015-Feb-24 08:33N 35°23' E 139°39'0 0.0
2015-Feb-24 07:33N 35°23' E 139°39'0 0.0
2015-Feb-24 06:33N 35°23' E 139°39'  
Track history (hours):
 
Tides and Currents Weather Stations Pressure Air Temp Water Temp Dewpoint Dewpoint Depression Visibility Wind Speed Wind Dir Waves Ship Positions

Toyofujimaru No.2

Last reported at 2015-Mar-06 06:31 UTC. Time now 2015-Mar-06 07:35 UTC.
Position N 35°30' E 139°46'.

Length 165 m; draft 6.4 m.

Type: Cargo ship. MMSI: 432667000.

Date/timePositionNaut miles runAvg speedWind from/ knotsBaromVisibWave heightAir tempDewpointWater temp
2015-Mar-06 06:31N 35°30' E 139°46'0 0.0
2015-Mar-06 05:25N 35°30' E 139°46'1 0.6
2015-Mar-06 04:34N 35°30' E 139°45'9 8.6
2015-Mar-06 03:34N 35°23' E 139°39'0 0.0
2015-Mar-06 02:33N 35°23' E 139°39'0 0.0
2015-Mar-06 01:33N 35°23' E 139°39'0 0.0
2015-Mar-06 00:33N 35°23' E 139°39'0 0.0
2015-Mar-05 23:33N 35°23' E 139°39'0 0.2
2015-Mar-05 22:34N 35°24' E 139°39'1110.7
2015-Mar-05 21:33N 35°15' E 139°47'1616.1
2015-Mar-05 20:33N 35°01' E 139°38'2 0.1
2015-Mar-04 10:33N 35°02' E 139°37'1514.8
2015-Mar-04 09:33N 35°14' E 139°46'1110.9
2015-Mar-04 08:33N 35°23' E 139°39'0 0.0
2015-Mar-04 07:33N 35°23' E 139°39'0 0.0
2015-Mar-04 06:33N 35°23' E 139°39'0 0.0
2015-Mar-04 05:33N 35°23' E 139°39'0 0.0
2015-Mar-04 04:33N 35°23' E 139°39'0 0.0
2015-Mar-04 03:33N 35°23' E 139°39'8 8.4
2015-Mar-04 02:33N 35°17' E 139°45'1211.6
2015-Mar-04 01:32N 35°05' E 139°42'10 7.6
2015-Mar-04 00:15N 35°00' E 139°32'10 0.3
2015-Mar-02 10:32N 34°56' E 139°43'1818.2
2015-Mar-02 09:33N 35°13' E 139°46'1312.9
2015-Mar-02 08:33N 35°26' E 139°45'4 3.3
2015-Mar-02 07:13N 35°30' E 139°46'0 0.0
2015-Mar-02 06:31N 35°30' E 139°46'0 0.0
2015-Mar-02 05:31N 35°30' E 139°46'0 0.0
2015-Mar-02 04:31N 35°30' E 139°46'1 0.6
2015-Mar-02 03:33N 35°30' E 139°45'8 8.0
2015-Mar-02 02:34N 35°23' E 139°40'1 1.2
2015-Mar-02 01:33N 35°23' E 139°39'0 0.0
2015-Mar-02 00:32N 35°23' E 139°39'0 0.0
2015-Mar-01 23:33N 35°23' E 139°39'0 0.0
2015-Mar-01 22:33N 35°23' E 139°39'6 5.6
2015-Mar-01 21:34N 35°19' E 139°43'1413.9
2015-Mar-01 20:33N 35°06' E 139°45'2116.8
2015-Mar-01 19:17N 34°51' E 139°26'8 0.3
2015-Feb-28 12:33N 34°59' E 139°23'8 7.0
2015-Feb-28 11:28N 35°05' E 139°28'6 6.4
2015-Feb-28 10:34N 35°03' E 139°35'1515.1
2015-Feb-28 09:33N 35°15' E 139°46'1010.4
2015-Feb-28 08:34N 35°23' E 139°39'0 0.0
2015-Feb-28 07:32N 35°23' E 139°39'0 0.0
2015-Feb-28 06:32N 35°23' E 139°39'0 0.0
2015-Feb-28 05:32N 35°23' E 139°39'0 0.0
2015-Feb-28 04:32N 35°23' E 139°39'0 0.0
2015-Feb-28 03:33N 35°23' E 139°39'1010.0
2015-Feb-28 02:33N 35°16' E 139°47'1716.5
2015-Feb-28 01:33N 34°59' E 139°43'25 0.7
2015-Feb-26 13:26N 34°59' E 140°14'2218.7
2015-Feb-26 12:17N 34°52' E 139°49'1318.1
2015-Feb-26 11:33N 35°05' E 139°44'1414.4
2015-Feb-26 10:33N 35°19' E 139°43'1111.4
2015-Feb-26 09:33N 35°30' E 139°46'0 0.0
2015-Feb-26 08:31N 35°30' E 139°46'0 0.0
2015-Feb-26 07:28N 35°30' E 139°46'0 0.0
2015-Feb-26 06:31N 35°30' E 139°46'0 0.0
2015-Feb-26 05:31N 35°30' E 139°46'0 0.0
2015-Feb-26 04:32N 35°30' E 139°46'6 6.1
2015-Feb-26 03:33N 35°25' E 139°43'4 3.5
2015-Feb-26 02:32N 35°23' E 139°39'0 0.0
2015-Feb-26 01:32N 35°23' E 139°39'0 0.0
2015-Feb-26 00:32N 35°23' E 139°39'0 0.0
2015-Feb-25 23:11N 35°23' E 139°39'0 0.0
2015-Feb-25 22:21N 35°23' E 139°39'5 6.4
2015-Feb-25 21:33N 35°20' E 139°43'1313.4
2015-Feb-25 20:33N 35°06' E 139°44'7 0.2
2015-Feb-24 12:12N 35°03' E 139°37'1118.0
2015-Feb-24 11:34N 35°12' E 139°46'1212.5
2015-Feb-24 10:33N 35°23' E 139°40'1 0.6
2015-Feb-24 09:33N 35°23' E 139°39'0 0.0
2015-Feb-24 08:33N 35°23' E 139°39'0 0.0
2015-Feb-24 07:33N 35°23' E 139°39'0 0.0
2015-Feb-24 06:33N 35°23' E 139°39'  

Dump ship's entire track history